sensor_id;sensor_type;location;lat;lon;timestamp;P1;P2;P0
69123;PMS5003;56232;53.384;-2.732;2023-07-29T00:02:13;1;0;
69123;PMS5003;56232;53.384;-2.732;2023-07-29T00:04:39;0;0;
69123;PMS5003;56232;53.384;-2.732;2023-07-29T00:07:04;0;0;
69123;PMS5003;56232;53.384;-2.732;2023-07-29T00:09:30;2;2;
69123;PMS5003;56232;53.384;-2.732;2023-07-29T00:11:56;2;1;
69123;PMS5003;56232;53.384;-2.732;2023-07-29T00:14:21;2;1;
69123;PMS5003;56232;53.384;-2.732;2023-07-29T00:16:47;2;2;
69123;PMS5003;56232;53.384;-2.732;2023-07-29T00:19:13;2;1;
69123;PMS5003;56232;53.384;-2.732;2023-07-29T00:21:38;1;1;
69123;PMS5003;56232;53.384;-2.732;2023-07-29T00:24:04;2;2;
69123;PMS5003;56232;53.384;-2.732;2023-07-29T00:26:29;1;1;
69123;PMS5003;56232;53.384;-2.732;2023-07-29T00:28:55;2;2;
69123;PMS5003;56232;53.384;-2.732;2023-07-29T00:31:20;2;2;
69123;PMS5003;56232;53.384;-2.732;2023-07-29T00:33:46;2;1;
69123;PMS5003;56232;53.384;-2.732;2023-07-29T00:36:12;1;1;
69123;PMS5003;56232;53.384;-2.732;2023-07-29T00:38:37;0;0;
69123;PMS5003;56232;53.384;-2.732;2023-07-29T00:41:03;2;2;
69123;PMS5003;56232;53.384;-2.732;2023-07-29T00:43:29;2;2;
69123;PMS5003;56232;53.384;-2.732;2023-07-29T00:45:54;2;1;
69123;PMS5003;56232;53.384;-2.732;2023-07-29T00:48:20;1;1;
69123;PMS5003;56232;53.384;-2.732;2023-07-29T00:50:45;2;2;
69123;PMS5003;56232;53.384;-2.732;2023-07-29T00:53:11;1;1;
69123;PMS5003;56232;53.384;-2.732;2023-07-29T00:55:37;2;2;
69123;PMS5003;56232;53.384;-2.732;2023-07-29T00:58:02;2;2;
69123;PMS5003;56232;53.384;-2.732;2023-07-29T01:00:28;1;1;
69123;PMS5003;56232;53.384;-2.732;2023-07-29T01:02:53;1;0;
69123;PMS5003;56232;53.384;-2.732;2023-07-29T01:05:19;1;1;
69123;PMS5003;56232;53.384;-2.732;2023-07-29T01:07:47;3;3;
69123;PMS5003;56232;53.384;-2.732;2023-07-29T01:10:13;2;2;
69123;PMS5003;56232;53.384;-2.732;2023-07-29T01:12:37;1;1;
69123;PMS5003;56232;53.384;-2.732;2023-07-29T01:15:04;3;2;
69123;PMS5003;56232;53.384;-2.732;2023-07-29T01:17:28;2;2;
69123;PMS5003;56232;53.384;-2.732;2023-07-29T01:19:57;3;3;
69123;PMS5003;56232;53.384;-2.732;2023-07-29T01:22:18;4;3;
69123;PMS5003;56232;53.384;-2.732;2023-07-29T01:24:44;4;4;
69123;PMS5003;56232;53.384;-2.732;2023-07-29T01:27:09;4;4;
69123;PMS5003;56232;53.384;-2.732;2023-07-29T01:29:35;5;4;
69123;PMS5003;56232;53.384;-2.732;2023-07-29T01:32:02;2;2;
69123;PMS5003;56232;53.384;-2.732;2023-07-29T01:34:28;3;2;
69123;PMS5003;56232;53.384;-2.732;2023-07-29T01:36:52;4;4;
69123;PMS5003;56232;53.384;-2.732;2023-07-29T01:39:17;3;3;
69123;PMS5003;56232;53.384;-2.732;2023-07-29T01:41:43;3;3;
69123;PMS5003;56232;53.384;-2.732;2023-07-29T01:44:09;2;2;
69123;PMS5003;56232;53.384;-2.732;2023-07-29T01:46:34;4;3;
69123;PMS5003;56232;53.384;-2.732;2023-07-29T01:49:00;2;2;
69123;PMS5003;56232;53.384;-2.732;2023-07-29T01:51:25;6;4;
69123;PMS5003;56232;53.384;-2.732;2023-07-29T01:53:51;3;3;
69123;PMS5003;56232;53.384;-2.732;2023-07-29T01:56:16;2;2;
69123;PMS5003;56232;53.384;-2.732;2023-07-29T01:58:42;3;2;
69123;PMS5003;56232;53.384;-2.732;2023-07-29T02:01:07;2;1;
69123;PMS5003;56232;53.384;-2.732;2023-07-29T02:03:33;3;3;
69123;PMS5003;56232;53.384;-2.732;2023-07-29T02:05:59;3;3;
69123;PMS5003;56232;53.384;-2.732;2023-07-29T02:08:24;3;3;
69123;PMS5003;56232;53.384;-2.732;2023-07-29T02:10:50;3;2;
69123;PMS5003;56232;53.384;-2.732;2023-07-29T02:13:15;2;2;
69123;PMS5003;56232;53.384;-2.732;2023-07-29T02:15:41;2;2;
69123;PMS5003;56232;53.384;-2.732;2023-07-29T02:18:07;4;3;
69123;PMS5003;56232;53.384;-2.732;2023-07-29T02:20:32;4;4;
69123;PMS5003;56232;53.384;-2.732;2023-07-29T02:22:58;2;2;
69123;PMS5003;56232;53.384;-2.732;2023-07-29T02:25:24;2;2;
69123;PMS5003;56232;53.384;-2.732;2023-07-29T02:27:49;3;2;
69123;PMS5003;56232;53.384;-2.732;2023-07-29T02:30:15;2;2;
69123;PMS5003;56232;53.384;-2.732;2023-07-29T02:32:40;2;2;
69123;PMS5003;56232;53.384;-2.732;2023-07-29T02:35:06;3;3;
69123;PMS5003;56232;53.384;-2.732;2023-07-29T02:37:32;2;2;
69123;PMS5003;56232;53.384;-2.732;2023-07-29T02:39:57;4;4;
69123;PMS5003;56232;53.384;-2.732;2023-07-29T02:42:23;3;3;
69123;PMS5003;56232;53.384;-2.732;2023-07-29T02:44:49;2;2;
69123;PMS5003;56232;53.384;-2.732;2023-07-29T02:47:15;4;4;
69123;PMS5003;56232;53.384;-2.732;2023-07-29T02:49:40;3;3;
69123;PMS5003;56232;53.384;-2.732;2023-07-29T02:52:05;4;4;
69123;PMS5003;56232;53.384;-2.732;2023-07-29T02:54:31;4;4;
69123;PMS5003;56232;53.384;-2.732;2023-07-29T02:56:56;2;2;
69123;PMS5003;56232;53.384;-2.732;2023-07-29T02:59:22;5;5;
69123;PMS5003;56232;53.384;-2.732;2023-07-29T03:01:48;4;4;
69123;PMS5003;56232;53.384;-2.732;2023-07-29T03:04:14;2;2;
69123;PMS5003;56232;53.384;-2.732;2023-07-29T03:06:39;4;2;
69123;PMS5003;56232;53.384;-2.732;2023-07-29T03:09:04;1;1;
69123;PMS5003;56232;53.384;-2.732;2023-07-29T03:11:30;3;2;
69123;PMS5003;56232;53.384;-2.732;2023-07-29T03:13:55;4;4;
69123;PMS5003;56232;53.384;-2.732;2023-07-29T03:16:21;3;3;
69123;PMS5003;56232;53.384;-2.732;2023-07-29T03:18:47;4;4;
69123;PMS5003;56232;53.384;-2.732;2023-07-29T03:21:12;7;6;
69123;PMS5003;56232;53.384;-2.732;2023-07-29T03:23:37;6;5;
69123;PMS5003;56232;53.384;-2.732;2023-07-29T03:26:03;5;4;
69123;PMS5003;56232;53.384;-2.732;2023-07-29T03:28:29;4;4;
69123;PMS5003;56232;53.384;-2.732;2023-07-29T03:30:54;5;4;
69123;PMS5003;56232;53.384;-2.732;2023-07-29T03:33:20;4;3;
69123;PMS5003;56232;53.384;-2.732;2023-07-29T03:35:45;2;2;
69123;PMS5003;56232;53.384;-2.732;2023-07-29T03:38:10;3;3;
69123;PMS5003;56232;53.384;-2.732;2023-07-29T03:40:36;3;3;
69123;PMS5003;56232;53.384;-2.732;2023-07-29T03:43:02;4;4;
69123;PMS5003;56232;53.384;-2.732;2023-07-29T03:45:27;3;3;
69123;PMS5003;56232;53.384;-2.732;2023-07-29T03:47:53;3;3;
69123;PMS5003;56232;53.384;-2.732;2023-07-29T03:50:19;2;2;
69123;PMS5003;56232;53.384;-2.732;2023-07-29T03:52:44;4;4;
69123;PMS5003;56232;53.384;-2.732;2023-07-29T03:55:10;4;3;
69123;PMS5003;56232;53.384;-2.732;2023-07-29T03:57:35;5;5;
69123;PMS5003;56232;53.384;-2.732;2023-07-29T04:00:01;3;2;
69123;PMS5003;56232;53.384;-2.732;2023-07-29T04:02:27;2;2;
69123;PMS5003;56232;53.384;-2.732;2023-07-29T04:04:52;3;3;
69123;PMS5003;56232;53.384;-2.732;2023-07-29T04:07:18;4;3;
69123;PMS5003;56232;53.384;-2.732;2023-07-29T04:09:43;3;3;
69123;PMS5003;56232;53.384;-2.732;2023-07-29T04:12:09;4;3;
69123;PMS5003;56232;53.384;-2.732;2023-07-29T04:14:34;5;3;
69123;PMS5003;56232;53.384;-2.732;2023-07-29T04:17:00;4;4;
69123;PMS5003;56232;53.384;-2.732;2023-07-29T04:19:26;3;3;
69123;PMS5003;56232;53.384;-2.732;2023-07-29T04:21:51;6;5;
69123;PMS5003;56232;53.384;-2.732;2023-07-29T04:24:17;5;5;
69123;PMS5003;56232;53.384;-2.732;2023-07-29T04:26:42;3;3;
69123;PMS5003;56232;53.384;-2.732;2023-07-29T04:29:08;3;3;
69123;PMS5003;56232;53.384;-2.732;2023-07-29T04:31:34;4;4;
69123;PMS5003;56232;53.384;-2.732;2023-07-29T04:33:59;5;4;
69123;PMS5003;56232;53.384;-2.732;2023-07-29T04:36:25;4;4;
69123;PMS5003;56232;53.384;-2.732;2023-07-29T04:38:50;4;3;
69123;PMS5003;56232;53.384;-2.732;2023-07-29T04:41:16;4;4;
69123;PMS5003;56232;53.384;-2.732;2023-07-29T04:43:42;5;5;
69123;PMS5003;56232;53.384;-2.732;2023-07-29T04:46:07;4;3;
69123;PMS5003;56232;53.384;-2.732;2023-07-29T04:48:33;6;5;
69123;PMS5003;56232;53.384;-2.732;2023-07-29T04:50:58;5;5;
69123;PMS5003;56232;53.384;-2.732;2023-07-29T04:53:24;5;5;
69123;PMS5003;56232;53.384;-2.732;2023-07-29T04:55:49;7;6;
69123;PMS5003;56232;53.384;-2.732;2023-07-29T04:58:15;5;5;
69123;PMS5003;56232;53.384;-2.732;2023-07-29T05:00:41;8;6;
69123;PMS5003;56232;53.384;-2.732;2023-07-29T05:03:06;6;5;
69123;PMS5003;56232;53.384;-2.732;2023-07-29T05:05:32;7;6;
69123;PMS5003;56232;53.384;-2.732;2023-07-29T05:07:58;6;6;
69123;PMS5003;56232;53.384;-2.732;2023-07-29T05:10:23;4;3;
69123;PMS5003;56232;53.384;-2.732;2023-07-29T05:12:49;4;4;
69123;PMS5003;56232;53.384;-2.732;2023-07-29T05:15:15;3;3;
69123;PMS5003;56232;53.384;-2.732;2023-07-29T05:17:40;6;4;
69123;PMS5003;56232;53.384;-2.732;2023-07-29T05:20:06;6;6;
69123;PMS5003;56232;53.384;-2.732;2023-07-29T05:22:31;7;4;
69123;PMS5003;56232;53.384;-2.732;2023-07-29T05:24:56;8;6;
69123;PMS5003;56232;53.384;-2.732;2023-07-29T05:27:22;6;5;
69123;PMS5003;56232;53.384;-2.732;2023-07-29T05:29:48;6;6;
69123;PMS5003;56232;53.384;-2.732;2023-07-29T05:32:13;6;6;
69123;PMS5003;56232;53.384;-2.732;2023-07-29T05:34:39;3;3;
69123;PMS5003;56232;53.384;-2.732;2023-07-29T05:37:04;4;4;
69123;PMS5003;56232;53.384;-2.732;2023-07-29T05:39:29;5;3;
69123;PMS5003;56232;53.384;-2.732;2023-07-29T05:41:55;4;4;
69123;PMS5003;56232;53.384;-2.732;2023-07-29T05:44:21;4;3;
69123;PMS5003;56232;53.384;-2.732;2023-07-29T05:46:46;7;4;
69123;PMS5003;56232;53.384;-2.732;2023-07-29T05:49:11;4;4;
69123;PMS5003;56232;53.384;-2.732;2023-07-29T05:51:37;3;3;
69123;PMS5003;56232;53.384;-2.732;2023-07-29T05:54:02;5;5;
69123;PMS5003;56232;53.384;-2.732;2023-07-29T05:56:28;8;3;
69123;PMS5003;56232;53.384;-2.732;2023-07-29T05:58:53;5;4;
69123;PMS5003;56232;53.384;-2.732;2023-07-29T06:01:19;5;4;
69123;PMS5003;56232;53.384;-2.732;2023-07-29T06:03:44;3;2;
69123;PMS5003;56232;53.384;-2.732;2023-07-29T06:06:10;4;4;
69123;PMS5003;56232;53.384;-2.732;2023-07-29T06:08:35;2;2;
69123;PMS5003;56232;53.384;-2.732;2023-07-29T06:11:01;5;4;
69123;PMS5003;56232;53.384;-2.732;2023-07-29T06:13:26;5;4;
69123;PMS5003;56232;53.384;-2.732;2023-07-29T06:15:51;5;4;
69123;PMS5003;56232;53.384;-2.732;2023-07-29T06:18:17;3;3;
69123;PMS5003;56232;53.384;-2.732;2023-07-29T06:20:43;5;5;
69123;PMS5003;56232;53.384;-2.732;2023-07-29T06:23:08;5;4;
69123;PMS5003;56232;53.384;-2.732;2023-07-29T06:25:34;4;4;
69123;PMS5003;56232;53.384;-2.732;2023-07-29T06:27:59;7;7;
69123;PMS5003;56232;53.384;-2.732;2023-07-29T06:30:25;5;5;
69123;PMS5003;56232;53.384;-2.732;2023-07-29T06:32:50;6;6;
69123;PMS5003;56232;53.384;-2.732;2023-07-29T06:35:16;8;6;
69123;PMS5003;56232;53.384;-2.732;2023-07-29T06:37:41;10;8;
69123;PMS5003;56232;53.384;-2.732;2023-07-29T06:40:08;7;6;
69123;PMS5003;56232;53.384;-2.732;2023-07-29T06:42:33;7;7;
69123;PMS5003;56232;53.384;-2.732;2023-07-29T06:44:58;8;7;
69123;PMS5003;56232;53.384;-2.732;2023-07-29T06:47:24;7;7;
69123;PMS5003;56232;53.384;-2.732;2023-07-29T06:49:49;6;4;
69123;PMS5003;56232;53.384;-2.732;2023-07-29T06:52:16;5;5;
69123;PMS5003;56232;53.384;-2.732;2023-07-29T06:54:41;6;5;
69123;PMS5003;56232;53.384;-2.732;2023-07-29T06:57:06;4;3;
69123;PMS5003;56232;53.384;-2.732;2023-07-29T06:59:32;4;4;
69123;PMS5003;56232;53.384;-2.732;2023-07-29T07:01:58;6;5;
69123;PMS5003;56232;53.384;-2.732;2023-07-29T07:04:23;3;3;
69123;PMS5003;56232;53.384;-2.732;2023-07-29T07:06:49;3;3;
69123;PMS5003;56232;53.384;-2.732;2023-07-29T07:09:14;2;2;
69123;PMS5003;56232;53.384;-2.732;2023-07-29T07:11:40;4;3;
69123;PMS5003;56232;53.384;-2.732;2023-07-29T07:14:05;3;3;
69123;PMS5003;56232;53.384;-2.732;2023-07-29T07:16:31;3;3;
69123;PMS5003;56232;53.384;-2.732;2023-07-29T07:18:56;4;4;
69123;PMS5003;56232;53.384;-2.732;2023-07-29T07:21:22;2;2;
69123;PMS5003;56232;53.384;-2.732;2023-07-29T07:23:49;2;2;
69123;PMS5003;56232;53.384;-2.732;2023-07-29T07:26:13;2;2;
69123;PMS5003;56232;53.384;-2.732;2023-07-29T07:28:39;3;3;
69123;PMS5003;56232;53.384;-2.732;2023-07-29T07:31:04;3;3;
69123;PMS5003;56232;53.384;-2.732;2023-07-29T07:33:30;3;2;
69123;PMS5003;56232;53.384;-2.732;2023-07-29T07:35:55;3;2;
69123;PMS5003;56232;53.384;-2.732;2023-07-29T07:38:21;1;1;
69123;PMS5003;56232;53.384;-2.732;2023-07-29T07:43:12;3;3;
69123;PMS5003;56232;53.384;-2.732;2023-07-29T07:45:37;1;1;
69123;PMS5003;56232;53.384;-2.732;2023-07-29T07:48:03;1;1;
69123;PMS5003;56232;53.384;-2.732;2023-07-29T07:50:29;3;2;
69123;PMS5003;56232;53.384;-2.732;2023-07-29T07:52:54;3;2;
69123;PMS5003;56232;53.384;-2.732;2023-07-29T07:55:20;2;2;
69123;PMS5003;56232;53.384;-2.732;2023-07-29T07:57:45;1;1;
69123;PMS5003;56232;53.384;-2.732;2023-07-29T08:00:10;4;4;
69123;PMS5003;56232;53.384;-2.732;2023-07-29T08:02:36;3;3;
69123;PMS5003;56232;53.384;-2.732;2023-07-29T08:05:01;3;3;
69123;PMS5003;56232;53.384;-2.732;2023-07-29T08:07:27;2;2;
69123;PMS5003;56232;53.384;-2.732;2023-07-29T08:09:52;3;2;
69123;PMS5003;56232;53.384;-2.732;2023-07-29T08:12:17;4;3;
69123;PMS5003;56232;53.384;-2.732;2023-07-29T08:14:43;2;2;
69123;PMS5003;56232;53.384;-2.732;2023-07-29T08:17:08;4;3;
69123;PMS5003;56232;53.384;-2.732;2023-07-29T08:19:34;4;3;
69123;PMS5003;56232;53.384;-2.732;2023-07-29T08:21:59;4;3;
69123;PMS5003;56232;53.384;-2.732;2023-07-29T08:24:25;2;2;
69123;PMS5003;56232;53.384;-2.732;2023-07-29T08:26:50;1;1;
69123;PMS5003;56232;53.384;-2.732;2023-07-29T08:29:16;2;1;
69123;PMS5003;56232;53.384;-2.732;2023-07-29T08:31:41;4;2;
69123;PMS5003;56232;53.384;-2.732;2023-07-29T08:34:07;2;1;
69123;PMS5003;56232;53.384;-2.732;2023-07-29T08:36:32;2;2;
69123;PMS5003;56232;53.384;-2.732;2023-07-29T08:38:58;2;1;
69123;PMS5003;56232;53.384;-2.732;2023-07-29T08:41:25;2;1;
69123;PMS5003;56232;53.384;-2.732;2023-07-29T08:43:50;2;1;
69123;PMS5003;56232;53.384;-2.732;2023-07-29T08:46:14;3;2;
69123;PMS5003;56232;53.384;-2.732;2023-07-29T08:48:40;1;1;
69123;PMS5003;56232;53.384;-2.732;2023-07-29T08:51:05;1;1;
69123;PMS5003;56232;53.384;-2.732;2023-07-29T08:53:31;1;1;
69123;PMS5003;56232;53.384;-2.732;2023-07-29T08:55:56;0;0;
69123;PMS5003;56232;53.384;-2.732;2023-07-29T08:58:22;3;2;
69123;PMS5003;56232;53.384;-2.732;2023-07-29T09:00:47;0;0;
69123;PMS5003;56232;53.384;-2.732;2023-07-29T09:03:13;1;1;
69123;PMS5003;56232;53.384;-2.732;2023-07-29T09:05:38;0;0;
69123;PMS5003;56232;53.384;-2.732;2023-07-29T09:08:04;1;1;
69123;PMS5003;56232;53.384;-2.732;2023-07-29T09:10:29;1;0;
69123;PMS5003;56232;53.384;-2.732;2023-07-29T09:12:55;1;1;
69123;PMS5003;56232;53.384;-2.732;2023-07-29T09:17:45;1;1;
69123;PMS5003;56232;53.384;-2.732;2023-07-29T09:20:11;2;2;
69123;PMS5003;56232;53.384;-2.732;2023-07-29T09:22:36;2;2;
69123;PMS5003;56232;53.384;-2.732;2023-07-29T09:25:02;1;1;
69123;PMS5003;56232;53.384;-2.732;2023-07-29T09:27:27;3;3;
69123;PMS5003;56232;53.384;-2.732;2023-07-29T09:29:53;1;1;
69123;PMS5003;56232;53.384;-2.732;2023-07-29T09:32:18;1;1;
69123;PMS5003;56232;53.384;-2.732;2023-07-29T09:34:43;1;1;
69123;PMS5003;56232;53.384;-2.732;2023-07-29T09:37:09;2;1;
69123;PMS5003;56232;53.384;-2.732;2023-07-29T09:39:34;1;1;
69123;PMS5003;56232;53.384;-2.732;2023-07-29T09:42:00;1;1;
69123;PMS5003;56232;53.384;-2.732;2023-07-29T09:44:25;2;2;
69123;PMS5003;56232;53.384;-2.732;2023-07-29T09:46:51;2;1;
69123;PMS5003;56232;53.384;-2.732;2023-07-29T09:49:16;1;0;
69123;PMS5003;56232;53.384;-2.732;2023-07-29T09:51:42;1;1;
69123;PMS5003;56232;53.384;-2.732;2023-07-29T09:54:07;0;0;
69123;PMS5003;56232;53.384;-2.732;2023-07-29T09:56:33;1;1;
69123;PMS5003;56232;53.384;-2.732;2023-07-29T09:58:58;2;1;
69123;PMS5003;56232;53.384;-2.732;2023-07-29T10:01:24;2;2;
69123;PMS5003;56232;53.384;-2.732;2023-07-29T10:03:54;0;0;
69123;PMS5003;56232;53.384;-2.732;2023-07-29T10:06:15;1;1;
69123;PMS5003;56232;53.384;-2.732;2023-07-29T10:08:40;2;1;
69123;PMS5003;56232;53.384;-2.732;2023-07-29T10:11:06;1;1;
69123;PMS5003;56232;53.384;-2.732;2023-07-29T10:13:31;2;2;
69123;PMS5003;56232;53.384;-2.732;2023-07-29T10:15:57;1;1;
69123;PMS5003;56232;53.384;-2.732;2023-07-29T10:18:22;1;1;
69123;PMS5003;56232;53.384;-2.732;2023-07-29T10:20:47;1;1;
69123;PMS5003;56232;53.384;-2.732;2023-07-29T10:23:13;1;1;
69123;PMS5003;56232;53.384;-2.732;2023-07-29T10:25:39;0;0;
69123;PMS5003;56232;53.384;-2.732;2023-07-29T10:28:04;2;2;
69123;PMS5003;56232;53.384;-2.732;2023-07-29T10:30:29;2;1;
69123;PMS5003;56232;53.384;-2.732;2023-07-29T10:32:55;2;1;
69123;PMS5003;56232;53.384;-2.732;2023-07-29T10:35:20;2;1;
69123;PMS5003;56232;53.384;-2.732;2023-07-29T10:37:46;2;1;
69123;PMS5003;56232;53.384;-2.732;2023-07-29T10:40:11;2;1;
69123;PMS5003;56232;53.384;-2.732;2023-07-29T10:42:37;1;1;
69123;PMS5003;56232;53.384;-2.732;2023-07-29T10:47:28;0;0;
69123;PMS5003;56232;53.384;-2.732;2023-07-29T10:49:54;1;1;
69123;PMS5003;56232;53.384;-2.732;2023-07-29T10:54:44;4;3;
69123;PMS5003;56232;53.384;-2.732;2023-07-29T10:57:12;1;1;
69123;PMS5003;56232;53.384;-2.732;2023-07-29T10:59:35;4;1;
69123;PMS5003;56232;53.384;-2.732;2023-07-29T11:02:01;2;1;
69123;PMS5003;56232;53.384;-2.732;2023-07-29T11:04:26;0;0;
69123;PMS5003;56232;53.384;-2.732;2023-07-29T11:11:42;1;1;
69123;PMS5003;56232;53.384;-2.732;2023-07-29T11:14:08;3;2;
69123;PMS5003;56232;53.384;-2.732;2023-07-29T11:16:33;2;2;
69123;PMS5003;56232;53.384;-2.732;2023-07-29T11:18:59;1;1;
69123;PMS5003;56232;53.384;-2.732;2023-07-29T11:21:25;1;1;
69123;PMS5003;56232;53.384;-2.732;2023-07-29T11:23:50;3;2;
69123;PMS5003;56232;53.384;-2.732;2023-07-29T11:26:16;3;2;
69123;PMS5003;56232;53.384;-2.732;2023-07-29T11:28:41;1;1;
69123;PMS5003;56232;53.384;-2.732;2023-07-29T11:31:06;2;1;
69123;PMS5003;56232;53.384;-2.732;2023-07-29T11:33:32;2;1;
69123;PMS5003;56232;53.384;-2.732;2023-07-29T11:35:57;2;1;
69123;PMS5003;56232;53.384;-2.732;2023-07-29T11:38:23;2;1;
69123;PMS5003;56232;53.384;-2.732;2023-07-29T11:43:17;2;1;
69123;PMS5003;56232;53.384;-2.732;2023-07-29T11:45:40;1;1;
69123;PMS5003;56232;53.384;-2.732;2023-07-29T11:48:06;1;1;
69123;PMS5003;56232;53.384;-2.732;2023-07-29T11:50:31;1;1;
69123;PMS5003;56232;53.384;-2.732;2023-07-29T11:52:56;1;1;
69123;PMS5003;56232;53.384;-2.732;2023-07-29T11:55:22;2;2;
69123;PMS5003;56232;53.384;-2.732;2023-07-29T11:57:48;0;0;
69123;PMS5003;56232;53.384;-2.732;2023-07-29T12:00:13;2;1;
69123;PMS5003;56232;53.384;-2.732;2023-07-29T12:02:39;0;0;
69123;PMS5003;56232;53.384;-2.732;2023-07-29T12:05:04;3;2;
69123;PMS5003;56232;53.384;-2.732;2023-07-29T12:07:29;1;1;
69123;PMS5003;56232;53.384;-2.732;2023-07-29T12:09:55;1;1;
69123;PMS5003;56232;53.384;-2.732;2023-07-29T12:12:22;0;0;
69123;PMS5003;56232;53.384;-2.732;2023-07-29T12:14:46;1;1;
69123;PMS5003;56232;53.384;-2.732;2023-07-29T12:17:17;2;2;
69123;PMS5003;56232;53.384;-2.732;2023-07-29T12:19:38;0;0;
69123;PMS5003;56232;53.384;-2.732;2023-07-29T12:22:03;0;0;
69123;PMS5003;56232;53.384;-2.732;2023-07-29T12:24:29;2;1;
69123;PMS5003;56232;53.384;-2.732;2023-07-29T12:26:54;1;1;
69123;PMS5003;56232;53.384;-2.732;2023-07-29T12:29:19;1;1;
69123;PMS5003;56232;53.384;-2.732;2023-07-29T12:31:45;0;0;
69123;PMS5003;56232;53.384;-2.732;2023-07-29T12:34:10;1;1;
69123;PMS5003;56232;53.384;-2.732;2023-07-29T12:39:01;1;0;
69123;PMS5003;56232;53.384;-2.732;2023-07-29T12:41:27;1;0;
69123;PMS5003;56232;53.384;-2.732;2023-07-29T12:43:52;3;2;
69123;PMS5003;56232;53.384;-2.732;2023-07-29T12:46:18;2;1;
69123;PMS5003;56232;53.384;-2.732;2023-07-29T12:48:43;0;0;
69123;PMS5003;56232;53.384;-2.732;2023-07-29T12:51:09;2;1;
69123;PMS5003;56232;53.384;-2.732;2023-07-29T12:53:34;0;0;
69123;PMS5003;56232;53.384;-2.732;2023-07-29T12:56:00;1;1;
69123;PMS5003;56232;53.384;-2.732;2023-07-29T12:58:25;1;0;
69123;PMS5003;56232;53.384;-2.732;2023-07-29T13:00:56;1;0;
69123;PMS5003;56232;53.384;-2.732;2023-07-29T13:03:17;1;1;
69123;PMS5003;56232;53.384;-2.732;2023-07-29T13:05:42;2;2;
69123;PMS5003;56232;53.384;-2.732;2023-07-29T13:08:07;1;0;
69123;PMS5003;56232;53.384;-2.732;2023-07-29T13:10:33;0;0;
69123;PMS5003;56232;53.384;-2.732;2023-07-29T13:12:58;0;0;
69123;PMS5003;56232;53.384;-2.732;2023-07-29T13:15:24;0;0;
69123;PMS5003;56232;53.384;-2.732;2023-07-29T13:17:49;1;1;
69123;PMS5003;56232;53.384;-2.732;2023-07-29T13:20:16;1;1;
69123;PMS5003;56232;53.384;-2.732;2023-07-29T13:22:41;0;0;
69123;PMS5003;56232;53.384;-2.732;2023-07-29T13:25:06;1;1;
69123;PMS5003;56232;53.384;-2.732;2023-07-29T13:27:32;2;1;
69123;PMS5003;56232;53.384;-2.732;2023-07-29T13:29:57;0;0;
69123;PMS5003;56232;53.384;-2.732;2023-07-29T13:32:23;1;1;
69123;PMS5003;56232;53.384;-2.732;2023-07-29T13:34:48;1;1;
69123;PMS5003;56232;53.384;-2.732;2023-07-29T13:37:14;1;0;
69123;PMS5003;56232;53.384;-2.732;2023-07-29T13:39:39;0;0;
69123;PMS5003;56232;53.384;-2.732;2023-07-29T13:42:05;1;0;
69123;PMS5003;56232;53.384;-2.732;2023-07-29T13:44:30;1;0;
69123;PMS5003;56232;53.384;-2.732;2023-07-29T13:46:56;1;0;
69123;PMS5003;56232;53.384;-2.732;2023-07-29T13:49:21;0;0;
69123;PMS5003;56232;53.384;-2.732;2023-07-29T13:51:47;0;0;
69123;PMS5003;56232;53.384;-2.732;2023-07-29T13:54:12;1;1;
69123;PMS5003;56232;53.384;-2.732;2023-07-29T13:56:38;1;0;
69123;PMS5003;56232;53.384;-2.732;2023-07-29T13:59:03;1;1;
69123;PMS5003;56232;53.384;-2.732;2023-07-29T14:01:29;0;0;
69123;PMS5003;56232;53.384;-2.732;2023-07-29T14:03:54;1;1;
69123;PMS5003;56232;53.384;-2.732;2023-07-29T14:06:20;2;0;
69123;PMS5003;56232;53.384;-2.732;2023-07-29T14:08:45;0;0;
69123;PMS5003;56232;53.384;-2.732;2023-07-29T14:11:11;1;1;
69123;PMS5003;56232;53.384;-2.732;2023-07-29T14:13:36;0;0;
69123;PMS5003;56232;53.384;-2.732;2023-07-29T14:16:02;1;0;
69123;PMS5003;56232;53.384;-2.732;2023-07-29T14:18:27;0;0;
69123;PMS5003;56232;53.384;-2.732;2023-07-29T14:20:53;1;1;
69123;PMS5003;56232;53.384;-2.732;2023-07-29T14:23:18;1;0;
69123;PMS5003;56232;53.384;-2.732;2023-07-29T14:25:44;0;0;
69123;PMS5003;56232;53.384;-2.732;2023-07-29T14:28:10;1;1;
69123;PMS5003;56232;53.384;-2.732;2023-07-29T14:30:35;1;1;
69123;PMS5003;56232;53.384;-2.732;2023-07-29T14:33:01;0;0;
69123;PMS5003;56232;53.384;-2.732;2023-07-29T14:35:26;2;2;
69123;PMS5003;56232;53.384;-2.732;2023-07-29T14:37:52;0;0;
69123;PMS5003;56232;53.384;-2.732;2023-07-29T14:40:17;1;1;
69123;PMS5003;56232;53.384;-2.732;2023-07-29T14:42:43;0;0;
69123;PMS5003;56232;53.384;-2.732;2023-07-29T14:45:08;1;1;
69123;PMS5003;56232;53.384;-2.732;2023-07-29T14:47:34;2;1;
69123;PMS5003;56232;53.384;-2.732;2023-07-29T14:49:59;0;0;
69123;PMS5003;56232;53.384;-2.732;2023-07-29T14:52:25;1;1;
69123;PMS5003;56232;53.384;-2.732;2023-07-29T14:54:50;0;0;
69123;PMS5003;56232;53.384;-2.732;2023-07-29T14:57:16;2;1;
69123;PMS5003;56232;53.384;-2.732;2023-07-29T14:59:41;0;0;
69123;PMS5003;56232;53.384;-2.732;2023-07-29T15:02:07;2;2;
69123;PMS5003;56232;53.384;-2.732;2023-07-29T15:04:32;0;0;
69123;PMS5003;56232;53.384;-2.732;2023-07-29T15:06:58;1;0;
69123;PMS5003;56232;53.384;-2.732;2023-07-29T15:09:23;1;1;
69123;PMS5003;56232;53.384;-2.732;2023-07-29T15:11:49;0;0;
69123;PMS5003;56232;53.384;-2.732;2023-07-29T15:14:14;1;0;
69123;PMS5003;56232;53.384;-2.732;2023-07-29T15:16:40;0;0;
69123;PMS5003;56232;53.384;-2.732;2023-07-29T15:19:05;1;1;
69123;PMS5003;56232;53.384;-2.732;2023-07-29T15:21:31;2;2;
69123;PMS5003;56232;53.384;-2.732;2023-07-29T15:23:56;2;2;
69123;PMS5003;56232;53.384;-2.732;2023-07-29T15:26:22;2;2;
69123;PMS5003;56232;53.384;-2.732;2023-07-29T15:28:47;2;2;
69123;PMS5003;56232;53.384;-2.732;2023-07-29T15:31:13;0;0;
69123;PMS5003;56232;53.384;-2.732;2023-07-29T15:33:38;0;0;
69123;PMS5003;56232;53.384;-2.732;2023-07-29T15:36:04;1;0;
69123;PMS5003;56232;53.384;-2.732;2023-07-29T15:38:29;2;1;
69123;PMS5003;56232;53.384;-2.732;2023-07-29T15:40:55;1;1;
69123;PMS5003;56232;53.384;-2.732;2023-07-29T15:43:20;1;1;
69123;PMS5003;56232;53.384;-2.732;2023-07-29T15:45:46;1;1;
69123;PMS5003;56232;53.384;-2.732;2023-07-29T15:48:11;1;1;
69123;PMS5003;56232;53.384;-2.732;2023-07-29T15:50:37;1;0;
69123;PMS5003;56232;53.384;-2.732;2023-07-29T15:53:02;1;1;
69123;PMS5003;56232;53.384;-2.732;2023-07-29T15:55:28;2;1;
69123;PMS5003;56232;53.384;-2.732;2023-07-29T15:57:54;1;1;
69123;PMS5003;56232;53.384;-2.732;2023-07-29T16:00:19;0;0;
69123;PMS5003;56232;53.384;-2.732;2023-07-29T16:02:45;1;1;
69123;PMS5003;56232;53.384;-2.732;2023-07-29T16:05:10;2;1;
69123;PMS5003;56232;53.384;-2.732;2023-07-29T16:07:36;2;1;
69123;PMS5003;56232;53.384;-2.732;2023-07-29T16:10:01;1;1;
69123;PMS5003;56232;53.384;-2.732;2023-07-29T16:12:27;0;0;
69123;PMS5003;56232;53.384;-2.732;2023-07-29T16:14:52;0;0;
69123;PMS5003;56232;53.384;-2.732;2023-07-29T16:17:18;0;0;
69123;PMS5003;56232;53.384;-2.732;2023-07-29T16:22:09;1;1;
69123;PMS5003;56232;53.384;-2.732;2023-07-29T16:24:34;1;1;
69123;PMS5003;56232;53.384;-2.732;2023-07-29T16:27:00;2;2;
69123;PMS5003;56232;53.384;-2.732;2023-07-29T16:29:25;0;0;
69123;PMS5003;56232;53.384;-2.732;2023-07-29T16:31:51;1;1;
69123;PMS5003;56232;53.384;-2.732;2023-07-29T16:34:17;0;0;
69123;PMS5003;56232;53.384;-2.732;2023-07-29T16:36:42;2;1;
69123;PMS5003;56232;53.384;-2.732;2023-07-29T16:39:07;1;1;
69123;PMS5003;56232;53.384;-2.732;2023-07-29T16:41:33;1;1;
69123;PMS5003;56232;53.384;-2.732;2023-07-29T16:43:58;3;2;